• Join FlightAware (Why Join?)
  • Login
  • US Flag 
01:13PM EDT


 

Airport Tracker/Info


-or-


 

Live Flight TrackerFlight Track Log ✈ N821LC ✈ 08-May-2013 ✈ KMDW - KBED

Flight Track Log - Related Links

Times and Time Zones

All times are in EDT time to prevent confusion due to time zone crossing. See the N821LC flight status page for this flight to view local times or setup timezone preferences in your user account.

Time Position Orientation Groundspeed Altitude Reporting Facility
EDT Latitude Longitude Course Direction KTS MPH feet Rate Location/Type
05:46PM 41.8000 -87.6833 90° East 196 226 3,400  Level Chicago TRACON
05:47PM 41.7844 -87.5892 102° East 216 249 4,200 1,560 Climbing Chicago Center
05:48PM 41.7739 -87.4839 98° East 267 307 7,000 2,940 Climbing Chicago Center
05:49PM 41.7725 -87.3742 91° East 294 338 10,300 2,640 Climbing Chicago Center
05:50PM 41.7692 -87.2522 92° East 330 380 12,500 2,220 Climbing Chicago Center
05:51PM 41.7500 -86.8511 90° East  Level FlightAware Approximate
05:51PM 41.7622 -87.1006 93° East 401 461 14,900  Level Chicago Center
05:52PM 41.7603 -86.9444 91° East 420 483 18,500 3,600 Climbing Chicago Center
05:53PM 41.7667 -86.7564 87° East 423 487 22,400 2,400 Climbing Chicago Center
05:54PM 41.7664 -86.6036 90° East 442 509 23,500 1,740 Climbing Chicago Center
05:55PM 41.7678 -86.4297 89° East 465 535 26,000 2,220 Climbing Chicago Center
05:56PM 41.7719 -86.2594 88° East 460 529 28,200 1,980 Climbing Chicago Center
05:57PM 41.7789 -86.0531 87° East 463 533 30,200 1,740 Climbing Chicago Center
05:58PM 41.7936 -85.8806 83° East 465 535 31,900 1,620 Climbing Chicago Center
05:59PM 41.8100 -85.7097 83° East 463 533 33,600 1,500 Climbing Chicago Center
06:00PM 41.8253 -85.5397 83° East 457 526 35,100 1,320 Climbing Chicago Center
06:01PM 41.8397 -85.3667 84° East 459 528 36,400 1,080 Climbing Chicago Center
06:02PM 41.8542 -85.1969 83° East 452 520 37,400 900 Climbing Chicago Center
06:03PM 41.8675 -85.0281 84° East 451 519 38,300 960 Climbing Chicago Center
06:04PM 41.8744 -84.9564 83° East 476 548 38,700 960 Climbing Cleveland Center
06:05PM 41.8869 -84.7897 84° East 466 536 39,500 660 Climbing Cleveland Center
06:06PM 41.9014 -84.6233 83° East 454 522 40,100 660 Climbing Cleveland Center
06:07PM 41.9133 -84.4536 85° East 454 522 40,900 420 Climbing Cleveland Center
06:08PM 41.9253 -84.2842 85° East 454 522 41,000 180 Climbing Cleveland Center
06:09PM 41.9342 -84.1339 85° East 454 522 41,300 540 Climbing Cleveland Center
06:10PM 41.9456 -83.9642 85° East 454 522 42,100 660 Climbing Cleveland Center
06:11PM 41.9567 -83.7972 85° East 454 522 42,700 420 Climbing Cleveland Center
06:12PM 41.9675 -83.6272 85° East 454 522 43,000 120 Climbing Cleveland Center
06:13PM 41.9803 -83.4575 84° East 454 522 43,000  Level Cleveland Center
06:14PM 41.9931 -83.2681 85° East 464 534 43,000  Level Cleveland Center
06:15PM 42.0008 -83.1092 86° East 464 534 43,000  Level Cleveland Center
06:16PM 42.0150 -82.9392 84° East 464 534 43,000  Level Cleveland Center
06:17PM 42.0250 -82.7411 86° East 469 540 43,000  Level Cleveland Center
06:18PM 42.0344 -82.5681 86° East 469 540 43,000  Level Cleveland Center
06:19PM 42.0542 -82.3897 81° East 475 547 43,000  Level Cleveland Center
06:20PM 42.0650 -82.2222 85° East 470 541 43,000  Level Cleveland Center
06:21PM 42.0922 -82.0661 77° East 464 534 43,000  Level Cleveland Center
06:22PM 42.1131 -81.8903 81° East 470 541 43,000  Level Cleveland Center
06:23PM 42.1314 -81.7172 82° East 465 535 43,000  Level Cleveland Center
06:24PM 42.1539 -81.5411 80° East 471 542 43,000  Level Cleveland Center
06:25PM 42.1700 -81.3675 83° East 464 534 43,000  Level Cleveland Center
06:26PM 42.1897 -81.1772 82° East 464 534 43,000  Level Cleveland Center
06:27PM 42.2094 -81.0008 81° East 471 542 43,000  Level Cleveland Center
06:28PM 42.2286 -80.8272 81° East 466 536 43,000  Level Cleveland Center
06:29PM 42.2475 -80.6561 81° East 466 536 43,000  Level Cleveland Center
06:30PM 42.2664 -80.4850 81° East 466 536 43,000  Level Cleveland Center
06:31PM 42.2806 -80.3081 84° East 466 536 43,000  Level Cleveland Center
06:32PM 42.3008 -80.1369 81° East 466 536 43,000  Level Cleveland Center
06:33PM 42.3169 -79.9625 83° East 466 536 43,000  Level Cleveland Center
06:34PM 42.3344 -79.7883 82° East 466 536 43,000  Level Cleveland Center
06:35PM 42.3497 -79.6139 83° East 466 536 43,000  Level Cleveland Center
06:36PM 42.3669 -79.4367 82° East 466 536 43,000  Level Cleveland Center
06:37PM 42.3839 -79.2592 83° East 466 536 43,000  Level Cleveland Center
06:38PM 42.4006 -79.0844 83° East 466 536 43,000  Level Cleveland Center
06:39PM 42.4128 -78.9100 85° East 466 536 43,000  Level Cleveland Center
06:40PM 42.4289 -78.7519 82° East 466 536 43,000  Level Cleveland Center
06:41PM 42.4447 -78.5742 83° East 466 536 43,000  Level Cleveland Center
06:42PM 42.4606 -78.4019 83° East 466 536 43,000  Level Cleveland Center
06:43PM 42.4736 -78.2269 84° East 466 536 43,000  Level Cleveland Center
06:44PM 42.4867 -78.0519 84° East 466 536 43,000  Level Cleveland Center
06:45PM 42.4994 -77.8767 84° East 466 536 43,000  Level Cleveland Center
06:46PM 42.5139 -77.7042 83° East 466 536 43,000  Level Cleveland Center
06:47PM 42.5261 -77.5261 85° East 466 536 43,000  Level Cleveland Center
06:49PM 42.5603 -77.0722 84° East 474 545 43,000  Level Boston Center
06:50PM 42.5736 -76.8928 84° East 474 545 43,000  Level Boston Center
06:51PM 42.5867 -76.7158 84° East 469 540 43,000  Level Boston Center
06:52PM 42.5975 -76.5389 85° East 469 540 43,000  Level Boston Center
06:53PM 42.6094 -76.3758 84° East 479 551 43,000 -240 Level Boston Center
06:54PM 42.6189 -76.2183 85° East 473 544 42,600 -540 Descending Boston Center
06:55PM 42.6319 -76.0075 85° East 468 539 42,000 -600 Descending Boston Center
06:56PM 42.6417 -75.8331 86° East 463 533 41,400 -1,200 Descending Boston Center
06:57PM 42.6525 -75.6756 85° East 457 526 39,600 -1,920 Descending Boston Center
06:58PM 42.6611 -75.5122 86° East 451 519 37,600 -1,860 Descending Boston Center
06:59PM 42.6694 -75.3544 86° East 436 502 35,900 -1,800 Descending Boston Center
07:00PM 42.6794 -75.1994 85° East 415 478 34,100 -1,800 Descending Boston Center
07:01PM 42.6875 -75.0444 86° East 410 472 32,400 -1,680 Descending Boston Center
07:02PM 42.6972 -74.8839 85° East 410 472 30,800 -1,620 Descending Boston Center
07:03PM 42.7047 -74.7203 86° East 421 484 29,200 -900 Descending Boston Center
07:04PM 42.7122 -74.5508 86° East 426 490 29,000 -120 Descending Boston Center
07:05PM 42.7194 -74.3844 87° East 437 503 29,000  Level Boston Center
07:06PM 42.7283 -74.2181 86° East 443 510 29,000  Level Boston Center
07:07PM 42.7372 -74.0458 86° East 443 510 29,000 -480 Level Boston Center
07:08PM 42.7436 -73.8764 87° East 443 510 28,100 -900 Descending Boston Center
07:09PM 42.7436 -73.6953 90° East 438 504 27,300 -1,080 Descending Boston Center
07:10PM 42.7203 -73.5422 102° East 443 510 26,000 -1,440 Descending Boston Center
07:11PM 42.7008 -73.3722 99° East 448 516 24,500 -1,500 Descending Boston Center
07:12PM 42.6833 -73.2056 98° East 448 516 23,000 -1,560 Descending Boston Center
07:13PM 42.6636 -73.0442 99° East 443 510 21,400 -1,800 Descending Boston Center
07:14PM 42.6433 -72.8664 99° East 438 504 19,400 -2,100 Descending Boston Center
07:15PM 42.6292 -72.7392 99° East 416 479 17,300 -2,100 Descending Boston Center
07:16PM 42.6150 -72.6236 99° East 402 463 15,200 -2,580 Descending Boston Center
07:17PM 42.5942 -72.4569 100° East 377 434 12,200 -2,700 Descending Boston Center
07:18PM 42.5797 -72.3331 99° East 352 405 9,800 -1,800 Descending Boston Center
07:19PM 42.5647 -72.2144 100° East 313 360 8,600 -1,620 Descending Boston Center
07:20PM 42.5519 -72.1161 100° East 269 310 6,600 -1,320 Descending Boston Center
07:21PM 42.5414 -72.0231 99° East 254 292 6,000 -300 Descending Boston Center
07:22PM 42.5325 -71.9244 97° East 259 298 6,000  Level Boston Center
07:23PM 42.5258 -71.8428 96° East 231 266 6,000 -840 Level Boston Center
07:24PM 42.5192 -71.7611 96° East 218 251 4,400 -1,020 Descending Boston Center
07:25PM 42.5125 -71.6853 97° East 213 245 4,000 -240 Descending Boston Center
07:26PM 42.5058 -71.6092 97° East 208 239 4,000 -120 Level Boston Center
07:27PM 42.5000 -71.5667 101° East 184 212 3,900 -1,080 Descending KA90
07:28PM 42.5000 -71.5167 90° East 164 189 2,400 -900 Descending KA90
07:29PM 42.4833 -71.4500 109° East 141 162 2,100 -300 Descending KA90
07:30PM 42.4833 -71.4000 90° East 136 157 1,900 -480 Descending KA90
07:31PM 42.4833 -71.3500 90° East 123 142 1,100 -720 Descending KA90
07:32PM 42.4667 -71.3167 124° Southeast 114 131 500 1,440 Descending KA90
07:34PM 42.4606 -71.2186 95° East 121 139 6,000 1,620 Climbing Boston Center
07:35PM 42.4558 -71.1767 99° East 121 139 6,000  Level Boston Center
07:36PM 42.4514 -71.1514 103° East 121 139 6,000  Level Boston Center
07:38PM 42.4667 -71.2833 280° West  Level FlightAware Approximate
07:45PM 42.4699 -71.2890 280° West  Level Estimated
07:46PM 42.4667 -71.2833 280° West  Level FlightAware Approximate
07:47PM 42.4699 -71.2890 280° West  Level Estimated
07:48PM 42.4667 -71.2833 280° West  Level FlightAware Approximate